• Join FlightAware (Why Join?)
  • Login
  • US Flag 
04:05PM EDT


 

Airport Tracker/Info


-or-


 

Live Flight TrackerFlight Track Log ✈ JZA8753 ✈ 23-Jul-2013 ✈ CYUL - CYVO

Flight Track Log - Related Links

Times and Time Zones

All times are in EDT time to prevent confusion due to time zone crossing. See the JZA8753 flight status page for this flight to view local times or setup timezone preferences in your user account.

Time Position Orientation Groundspeed Altitude Reporting Facility
EDT Latitude Longitude Course Direction KTS MPH feet Rate Location/Type
07:19PM 45.4500 -73.7167 360° North 20 23 100  Level Montreal Center
07:20PM 45.4500 -73.7167 360° North 30 35 100  Level Montreal Center
07:22PM 45.5258 -73.8267 290° West  Level Estimated
07:25PM 45.4500 -73.7167 272° West 110 127 300  Level Montreal Center
07:26PM 45.4667 -73.7667 295° West 150 173 1,600 1,140 Climbing Montreal Center
07:27PM 45.5000 -73.8167 314° West 170 196 2,600 1,020 Climbing Montreal Center
07:28PM 45.5333 -73.8667 314° West 180 207 3,700 1,080 Climbing Montreal Center
07:29PM 45.8492 -74.3015 311° West  Level Estimated
07:29PM 45.5667 -73.9167 314° West 180 207 4,800  Level Montreal Center
07:30PM 45.8953 -74.3698 296° West  Level Estimated
07:30PM 45.6000 -73.9500 325° Northwest 200 230 5,000  Level Montreal Center
07:31PM 45.8976 -74.4563 272° West  Level FlightAware Approximate
07:31PM 45.6667 -74.0333 319° Northwest 230 265 5,000  Level Montreal Center
07:32PM 45.7167 -74.0667 335° Northwest 230 265 5,000 840 Level Montreal Center
07:33PM 45.7667 -74.1167 325° Northwest 190 219 6,700 1,080 Climbing Montreal Center
07:34PM 45.8000 -74.1667 314° West 180 207 7,200 600 Climbing Montreal Center
07:35PM 45.8333 -74.2167 314° West 180 207 8,000 900 Climbing Montreal Center
07:36PM 45.8667 -74.2667 314° West 170 196 9,100 960 Climbing Montreal Center
07:37PM 45.9000 -74.3000 325° Northwest 170 196 10,000 660 Climbing Montreal Center
07:38PM 45.9333 -74.3833 300° West 200 230 10,500 840 Climbing Montreal Center
07:39PM 45.9667 -74.4167 325° Northwest 180 207 11,700 960 Climbing Montreal Center
07:40PM 46.0000 -74.4667 314° West 180 207 12,500 900 Climbing Montreal Center
07:41PM 46.0333 -74.5167 314° West 180 207 13,600 900 Climbing Montreal Center
07:42PM 46.0667 -74.5667 314° West 180 207 14,400 900 Climbing Montreal Center
07:43PM 46.1167 -74.6333 317° Northwest 190 219 15,400 780 Climbing Montreal Center
07:44PM 46.1500 -74.6833 314° West 190 219 16,000 300 Climbing Montreal Center
07:45PM 46.1833 -74.7500 306° West 210 242 16,000  Level Montreal Center
07:46PM 46.2000 -74.8333 286° West 230 265 16,000  Level Montreal Center
07:47PM 46.2333 -74.9333 296° West 230 265 16,000  Level Montreal Center
07:48PM 46.2833 -75.0000 317° Northwest 240 276 16,000  Level Montreal Center
07:49PM 46.3167 -75.1000 296° West 250 288 16,000  Level Montreal Center
07:50PM 46.3500 -75.1667 306° West 240 276 16,100 540 Climbing Montreal Center
07:51PM 46.4000 -75.2333 317° Northwest 220 253 17,100 1,020 Climbing Montreal Center
07:52PM 46.4333 -75.2833 314° West 200 230 18,200 780 Climbing Montreal Center
07:53PM 46.4833 -75.3667 311° West 200 230 18,700 480 Climbing Montreal Center
07:54PM 46.5167 -75.4000 325° Northwest 200 230 19,200 480 Climbing Montreal Center
07:55PM 46.5500 -75.4833 300° West 200 230 19,700 360 Climbing Montreal Center
07:56PM 46.5833 -75.5333 314° West 200 230 20,000 120 Climbing Montreal Center
07:57PM 46.6000 -75.6333 284° West 220 253 20,000  Level Montreal Center
07:58PM 46.6333 -75.7000 306° West 220 253 20,000  Level Montreal Center
07:59PM 46.6667 -75.7667 306° West 220 253 20,000  Level Montreal Center
08:00PM 46.7000 -75.8667 296° West 220 253 20,000  Level Montreal Center
08:01PM 46.7167 -75.9500 286° West 230 265 20,000  Level Montreal Center
08:02PM 46.7500 -76.0167 306° West 220 253 20,000  Level Montreal Center
08:03PM 46.7833 -76.1167 296° West 220 253 20,000  Level Montreal Center
08:04PM 46.8167 -76.1667 314° West 240 276 20,000  Level Montreal Center
08:05PM 46.8833 -76.2333 326° Northwest 240 276 20,000  Level Montreal Center
08:06PM 46.9167 -76.3167 300° West 240 276 20,000  Level Montreal Center
08:07PM 46.9667 -76.3667 326° Northwest 240 276 20,000  Level Montreal Center
08:08PM 47.0167 -76.4333 318° Northwest 240 276 20,000  Level Montreal Center
08:09PM 47.0667 -76.5167 311° West 240 276 20,000  Level Montreal Center
08:10PM 47.1167 -76.5833 318° Northwest 240 276 20,000  Level Montreal Center
08:11PM 47.1667 -76.6333 326° Northwest 240 276 20,000  Level Montreal Center
08:12PM 47.2000 -76.7000 306° West 230 265 20,000 -420 Level Montreal Center
08:13PM 47.2500 -76.7833 311° West 240 276 19,200 -1,020 Descending Montreal Center
08:14PM 47.3000 -76.8500 318° Northwest 270 311 18,000 -1,380 Descending Montreal Center
08:15PM 47.3500 -76.9500 306° West 280 322 16,500 -1,500 Descending Montreal Center
08:16PM 47.4167 -77.0333 320° Northwest 280 322 15,100 -1,320 Descending Montreal Center
08:17PM 47.4667 -77.1167 312° West 290 334 13,900 -1,260 Descending Montreal Center
08:18PM 47.5167 -77.2167 307° West 280 322 12,600 -1,320 Descending Montreal Center
08:21PM 47.5907 -77.2948 314° West  Level FlightAware Approximate
08:28PM 47.8769 -77.7218 341° North  Level FlightAware Approximate
08:29PM 47.9332 -77.7399 345° North  Level FlightAware Approximate
08:30PM 47.9893 -77.7624 345° North  Level FlightAware Approximate
08:31PM 48.0471 -77.7667 North  Level FlightAware Approximate
08:32PM 48.0500 -77.7667 North  Level FlightAware Approximate
08:33PM 48.0533 -77.7828 North  Level Estimated
08:34PM 48.0533 -77.7828 North  Level Estimated
08:35PM 48.0533 -77.7828 North  Level Estimated
08:36PM 48.0533 -77.7828 North  Level Estimated